sensor_id;sensor_type;location;lat;lon;timestamp;P1;durP1;ratioP1;P2;durP2;ratioP2
69985;SDS011;57328;52.054;5.294;2023-05-23T00:02:14;20.88;;;7.68;;
69985;SDS011;57328;52.054;5.294;2023-05-23T00:04:41;18.52;;;5.95;;
69985;SDS011;57328;52.054;5.294;2023-05-23T00:07:09;21.95;;;8.50;;
69985;SDS011;57328;52.054;5.294;2023-05-23T00:09:36;19.02;;;8.85;;
69985;SDS011;57328;52.054;5.294;2023-05-23T00:12:04;18.10;;;8.07;;
69985;SDS011;57328;52.054;5.294;2023-05-23T00:14:32;15.57;;;7.10;;
69985;SDS011;57328;52.054;5.294;2023-05-23T00:21:55;19.25;;;6.72;;
69985;SDS011;57328;52.054;5.294;2023-05-23T00:24:23;16.17;;;5.68;;
69985;SDS011;57328;52.054;5.294;2023-05-23T00:26:51;13.75;;;5.30;;
69985;SDS011;57328;52.054;5.294;2023-05-23T00:29:18;11.77;;;4.70;;
69985;SDS011;57328;52.054;5.294;2023-05-23T00:31:46;18.60;;;7.40;;
69985;SDS011;57328;52.054;5.294;2023-05-23T00:34:14;19.38;;;6.20;;
69985;SDS011;57328;52.054;5.294;2023-05-23T00:36:43;13.73;;;4.90;;
69985;SDS011;57328;52.054;5.294;2023-05-23T00:39:13;14.18;;;5.20;;
69985;SDS011;57328;52.054;5.294;2023-05-23T00:41:47;13.75;;;5.05;;
69985;SDS011;57328;52.054;5.294;2023-05-23T00:44:17;14.57;;;4.72;;
69985;SDS011;57328;52.054;5.294;2023-05-23T00:46:46;12.10;;;4.85;;
69985;SDS011;57328;52.054;5.294;2023-05-23T00:49:13;17.85;;;6.30;;
69985;SDS011;57328;52.054;5.294;2023-05-23T00:51:41;10.05;;;4.35;;
69985;SDS011;57328;52.054;5.294;2023-05-23T00:54:08;11.65;;;5.63;;
69985;SDS011;57328;52.054;5.294;2023-05-23T00:56:36;14.48;;;5.97;;
69985;SDS011;57328;52.054;5.294;2023-05-23T00:59:05;16.35;;;7.43;;
69985;SDS011;57328;52.054;5.294;2023-05-23T01:01:32;16.65;;;6.28;;
69985;SDS011;57328;52.054;5.294;2023-05-23T01:04:02;22.08;;;8.30;;
69985;SDS011;57328;52.054;5.294;2023-05-23T01:06:30;21.15;;;7.95;;
69985;SDS011;57328;52.054;5.294;2023-05-23T01:08:58;15.93;;;6.43;;
69985;SDS011;57328;52.054;5.294;2023-05-23T01:11:37;11.73;;;5.00;;
69985;SDS011;57328;52.054;5.294;2023-05-23T01:14:11;15.68;;;5.90;;
69985;SDS011;57328;52.054;5.294;2023-05-23T01:16:43;14.65;;;5.47;;
69985;SDS011;57328;52.054;5.294;2023-05-23T01:19:30;17.48;;;5.80;;
69985;SDS011;57328;52.054;5.294;2023-05-23T01:22:04;10.45;;;4.10;;
69985;SDS011;57328;52.054;5.294;2023-05-23T01:24:35;18.23;;;6.13;;
69985;SDS011;57328;52.054;5.294;2023-05-23T01:29:56;15.20;;;6.00;;
69985;SDS011;57328;52.054;5.294;2023-05-23T01:32:24;13.10;;;5.90;;
69985;SDS011;57328;52.054;5.294;2023-05-23T01:34:51;15.60;;;5.88;;
69985;SDS011;57328;52.054;5.294;2023-05-23T01:37:19;10.52;;;4.97;;
69985;SDS011;57328;52.054;5.294;2023-05-23T01:39:46;13.77;;;6.00;;
69985;SDS011;57328;52.054;5.294;2023-05-23T01:42:14;13.48;;;5.72;;
69985;SDS011;57328;52.054;5.294;2023-05-23T01:44:43;12.93;;;5.63;;
69985;SDS011;57328;52.054;5.294;2023-05-23T01:47:11;10.27;;;4.53;;
69985;SDS011;57328;52.054;5.294;2023-05-23T01:49:38;14.13;;;5.22;;
69985;SDS011;57328;52.054;5.294;2023-05-23T01:52:06;13.23;;;5.38;;
69985;SDS011;57328;52.054;5.294;2023-05-23T01:54:38;11.25;;;4.70;;
69985;SDS011;57328;52.054;5.294;2023-05-23T01:57:07;9.10;;;4.13;;
69985;SDS011;57328;52.054;5.294;2023-05-23T01:59:35;11.65;;;4.90;;
69985;SDS011;57328;52.054;5.294;2023-05-23T02:02:03;8.95;;;3.95;;
69985;SDS011;57328;52.054;5.294;2023-05-23T02:04:31;10.85;;;4.40;;
69985;SDS011;57328;52.054;5.294;2023-05-23T02:06:58;9.10;;;3.67;;
69985;SDS011;57328;52.054;5.294;2023-05-23T02:09:25;8.93;;;3.58;;
69985;SDS011;57328;52.054;5.294;2023-05-23T02:11:52;10.48;;;4.47;;
69985;SDS011;57328;52.054;5.294;2023-05-23T02:14:20;11.05;;;4.78;;
69985;SDS011;57328;52.054;5.294;2023-05-23T02:16:47;12.00;;;4.35;;
69985;SDS011;57328;52.054;5.294;2023-05-23T02:19:14;10.57;;;4.22;;
69985;SDS011;57328;52.054;5.294;2023-05-23T02:21:42;8.90;;;4.28;;
69985;SDS011;57328;52.054;5.294;2023-05-23T02:24:09;12.38;;;5.10;;
69985;SDS011;57328;52.054;5.294;2023-05-23T02:26:36;9.98;;;4.05;;
69985;SDS011;57328;52.054;5.294;2023-05-23T02:29:03;13.10;;;4.82;;
69985;SDS011;57328;52.054;5.294;2023-05-23T02:31:31;13.48;;;4.90;;
69985;SDS011;57328;52.054;5.294;2023-05-23T02:33:58;12.82;;;4.85;;
69985;SDS011;57328;52.054;5.294;2023-05-23T02:36:25;13.05;;;4.57;;
69985;SDS011;57328;52.054;5.294;2023-05-23T02:38:52;12.60;;;4.85;;
69985;SDS011;57328;52.054;5.294;2023-05-23T02:41:20;8.50;;;2.83;;
69985;SDS011;57328;52.054;5.294;2023-05-23T02:43:48;7.13;;;3.53;;
69985;SDS011;57328;52.054;5.294;2023-05-23T02:46:15;14.65;;;4.65;;
69985;SDS011;57328;52.054;5.294;2023-05-23T02:48:42;10.77;;;4.25;;
69985;SDS011;57328;52.054;5.294;2023-05-23T02:51:10;12.10;;;5.10;;
69985;SDS011;57328;52.054;5.294;2023-05-23T02:53:38;12.10;;;4.38;;
69985;SDS011;57328;52.054;5.294;2023-05-23T02:56:06;12.68;;;4.40;;
69985;SDS011;57328;52.054;5.294;2023-05-23T02:58:34;12.20;;;4.25;;
69985;SDS011;57328;52.054;5.294;2023-05-23T03:01:01;12.52;;;4.28;;
69985;SDS011;57328;52.054;5.294;2023-05-23T03:03:30;16.55;;;5.40;;
69985;SDS011;57328;52.054;5.294;2023-05-23T03:05:58;12.00;;;4.68;;
69985;SDS011;57328;52.054;5.294;2023-05-23T03:08:25;11.70;;;4.57;;
69985;SDS011;57328;52.054;5.294;2023-05-23T03:10:52;11.18;;;4.38;;
69985;SDS011;57328;52.054;5.294;2023-05-23T03:13:19;14.50;;;5.53;;
69985;SDS011;57328;52.054;5.294;2023-05-23T03:15:46;18.20;;;5.57;;
69985;SDS011;57328;52.054;5.294;2023-05-23T03:18:14;14.48;;;4.75;;
69985;SDS011;57328;52.054;5.294;2023-05-23T03:20:41;15.70;;;5.00;;
69985;SDS011;57328;52.054;5.294;2023-05-23T03:23:08;15.98;;;4.82;;
69985;SDS011;57328;52.054;5.294;2023-05-23T03:25:35;16.80;;;5.57;;
69985;SDS011;57328;52.054;5.294;2023-05-23T03:28:03;15.27;;;3.90;;
69985;SDS011;57328;52.054;5.294;2023-05-23T03:30:30;15.63;;;5.03;;
69985;SDS011;57328;52.054;5.294;2023-05-23T03:32:57;19.50;;;5.95;;
69985;SDS011;57328;52.054;5.294;2023-05-23T03:35:25;11.77;;;4.30;;
69985;SDS011;57328;52.054;5.294;2023-05-23T03:37:52;12.68;;;4.45;;
69985;SDS011;57328;52.054;5.294;2023-05-23T03:40:20;24.30;;;5.65;;
69985;SDS011;57328;52.054;5.294;2023-05-23T03:42:47;16.45;;;5.80;;
69985;SDS011;57328;52.054;5.294;2023-05-23T03:45:15;14.10;;;5.13;;
69985;SDS011;57328;52.054;5.294;2023-05-23T03:47:43;14.45;;;5.03;;
69985;SDS011;57328;52.054;5.294;2023-05-23T03:50:10;12.90;;;4.82;;
69985;SDS011;57328;52.054;5.294;2023-05-23T03:52:38;19.88;;;5.82;;
69985;SDS011;57328;52.054;5.294;2023-05-23T03:55:05;22.38;;;6.05;;
69985;SDS011;57328;52.054;5.294;2023-05-23T03:57:34;18.13;;;5.53;;
69985;SDS011;57328;52.054;5.294;2023-05-23T04:00:02;16.70;;;4.93;;
69985;SDS011;57328;52.054;5.294;2023-05-23T04:02:31;14.95;;;5.20;;
69985;SDS011;57328;52.054;5.294;2023-05-23T04:04:58;15.00;;;4.57;;
69985;SDS011;57328;52.054;5.294;2023-05-23T04:07:26;19.75;;;4.93;;
69985;SDS011;57328;52.054;5.294;2023-05-23T04:09:53;21.75;;;5.88;;
69985;SDS011;57328;52.054;5.294;2023-05-23T04:15:58;16.83;;;4.53;;
69985;SDS011;57328;52.054;5.294;2023-05-23T04:18:26;18.42;;;4.63;;
69985;SDS011;57328;52.054;5.294;2023-05-23T04:20:53;20.83;;;5.03;;
69985;SDS011;57328;52.054;5.294;2023-05-23T04:23:21;22.55;;;6.60;;
69985;SDS011;57328;52.054;5.294;2023-05-23T04:25:48;16.40;;;4.63;;
69985;SDS011;57328;52.054;5.294;2023-05-23T04:28:16;18.30;;;6.35;;
69985;SDS011;57328;52.054;5.294;2023-05-23T04:30:43;15.75;;;5.40;;
69985;SDS011;57328;52.054;5.294;2023-05-23T04:33:11;14.48;;;4.22;;
69985;SDS011;57328;52.054;5.294;2023-05-23T04:35:38;14.40;;;3.97;;
69985;SDS011;57328;52.054;5.294;2023-05-23T04:38:06;10.93;;;3.15;;
69985;SDS011;57328;52.054;5.294;2023-05-23T04:40:33;15.30;;;5.07;;
69985;SDS011;57328;52.054;5.294;2023-05-23T04:43:00;8.35;;;2.97;;
69985;SDS011;57328;52.054;5.294;2023-05-23T04:45:28;9.85;;;2.80;;
69985;SDS011;57328;52.054;5.294;2023-05-23T04:47:56;13.07;;;3.75;;
69985;SDS011;57328;52.054;5.294;2023-05-23T04:50:23;8.60;;;2.40;;
69985;SDS011;57328;52.054;5.294;2023-05-23T04:52:50;7.15;;;2.08;;
69985;SDS011;57328;52.054;5.294;2023-05-23T04:55:18;10.52;;;3.42;;
69985;SDS011;57328;52.054;5.294;2023-05-23T04:57:45;9.55;;;3.03;;
69985;SDS011;57328;52.054;5.294;2023-05-23T05:00:13;10.52;;;2.75;;
69985;SDS011;57328;52.054;5.294;2023-05-23T05:02:40;5.78;;;2.28;;
69985;SDS011;57328;52.054;5.294;2023-05-23T05:05:08;10.15;;;3.75;;
69985;SDS011;57328;52.054;5.294;2023-05-23T05:07:36;9.18;;;3.28;;
69985;SDS011;57328;52.054;5.294;2023-05-23T05:10:04;12.43;;;3.40;;
69985;SDS011;57328;52.054;5.294;2023-05-23T05:12:32;16.02;;;3.85;;
69985;SDS011;57328;52.054;5.294;2023-05-23T05:14:59;11.18;;;2.88;;
69985;SDS011;57328;52.054;5.294;2023-05-23T05:17:26;16.13;;;4.00;;
69985;SDS011;57328;52.054;5.294;2023-05-23T05:19:57;8.32;;;2.92;;
69985;SDS011;57328;52.054;5.294;2023-05-23T05:22:24;12.48;;;3.42;;
69985;SDS011;57328;52.054;5.294;2023-05-23T05:24:52;10.82;;;3.67;;
69985;SDS011;57328;52.054;5.294;2023-05-23T05:27:19;8.25;;;3.28;;
69985;SDS011;57328;52.054;5.294;2023-05-23T05:29:46;12.10;;;2.88;;
69985;SDS011;57328;52.054;5.294;2023-05-23T05:32:15;9.93;;;4.22;;
69985;SDS011;57328;52.054;5.294;2023-05-23T05:34:42;14.25;;;3.75;;
69985;SDS011;57328;52.054;5.294;2023-05-23T05:37:12;7.95;;;2.72;;
69985;SDS011;57328;52.054;5.294;2023-05-23T05:39:40;11.52;;;3.58;;
69985;SDS011;57328;52.054;5.294;2023-05-23T05:42:07;9.85;;;3.60;;
69985;SDS011;57328;52.054;5.294;2023-05-23T05:44:34;9.57;;;3.10;;
69985;SDS011;57328;52.054;5.294;2023-05-23T05:47:01;8.65;;;2.80;;
69985;SDS011;57328;52.054;5.294;2023-05-23T05:49:29;7.60;;;2.40;;
69985;SDS011;57328;52.054;5.294;2023-05-23T05:51:56;11.75;;;3.40;;
69985;SDS011;57328;52.054;5.294;2023-05-23T05:54:23;10.27;;;3.03;;
69985;SDS011;57328;52.054;5.294;2023-05-23T05:56:50;9.38;;;2.75;;
69985;SDS011;57328;52.054;5.294;2023-05-23T05:59:18;11.95;;;3.00;;
69985;SDS011;57328;52.054;5.294;2023-05-23T06:01:45;12.20;;;3.35;;
69985;SDS011;57328;52.054;5.294;2023-05-23T06:04:12;11.65;;;2.72;;
69985;SDS011;57328;52.054;5.294;2023-05-23T06:06:39;12.68;;;3.65;;
69985;SDS011;57328;52.054;5.294;2023-05-23T06:09:07;12.35;;;3.05;;
69985;SDS011;57328;52.054;5.294;2023-05-23T06:11:34;11.02;;;3.75;;
69985;SDS011;57328;52.054;5.294;2023-05-23T06:14:04;7.78;;;3.03;;
69985;SDS011;57328;52.054;5.294;2023-05-23T06:16:32;11.63;;;3.78;;
69985;SDS011;57328;52.054;5.294;2023-05-23T06:18:59;18.77;;;4.45;;
69985;SDS011;57328;52.054;5.294;2023-05-23T06:21:27;12.88;;;3.53;;
69985;SDS011;57328;52.054;5.294;2023-05-23T06:23:54;11.38;;;3.85;;
69985;SDS011;57328;52.054;5.294;2023-05-23T06:26:21;10.38;;;3.63;;
69985;SDS011;57328;52.054;5.294;2023-05-23T06:28:48;15.32;;;3.38;;
69985;SDS011;57328;52.054;5.294;2023-05-23T06:31:16;15.98;;;3.95;;
69985;SDS011;57328;52.054;5.294;2023-05-23T06:33:45;13.77;;;3.60;;
69985;SDS011;57328;52.054;5.294;2023-05-23T06:36:12;9.93;;;2.97;;
69985;SDS011;57328;52.054;5.294;2023-05-23T06:38:39;12.63;;;3.40;;
69985;SDS011;57328;52.054;5.294;2023-05-23T06:41:06;10.20;;;3.15;;
69985;SDS011;57328;52.054;5.294;2023-05-23T06:43:33;11.65;;;3.90;;
69985;SDS011;57328;52.054;5.294;2023-05-23T06:48:49;9.32;;;2.72;;
69985;SDS011;57328;52.054;5.294;2023-05-23T06:51:32;8.20;;;2.58;;
69985;SDS011;57328;52.054;5.294;2023-05-23T06:53:59;10.57;;;2.80;;
69985;SDS011;57328;52.054;5.294;2023-05-23T06:56:26;11.82;;;3.72;;
69985;SDS011;57328;52.054;5.294;2023-05-23T06:58:53;9.30;;;2.95;;
69985;SDS011;57328;52.054;5.294;2023-05-23T07:01:21;9.90;;;2.83;;
69985;SDS011;57328;52.054;5.294;2023-05-23T07:03:48;8.00;;;2.63;;
69985;SDS011;57328;52.054;5.294;2023-05-23T07:06:16;7.18;;;2.25;;
69985;SDS011;57328;52.054;5.294;2023-05-23T07:08:43;13.25;;;3.67;;
69985;SDS011;57328;52.054;5.294;2023-05-23T07:11:11;7.53;;;2.33;;
69985;SDS011;57328;52.054;5.294;2023-05-23T07:13:39;8.48;;;2.13;;
69985;SDS011;57328;52.054;5.294;2023-05-23T07:16:06;5.40;;;1.58;;
69985;SDS011;57328;52.054;5.294;2023-05-23T07:18:34;5.50;;;2.15;;
69985;SDS011;57328;52.054;5.294;2023-05-23T07:21:04;4.18;;;1.55;;
69985;SDS011;57328;52.054;5.294;2023-05-23T07:23:31;10.27;;;2.50;;
69985;SDS011;57328;52.054;5.294;2023-05-23T07:26:01;12.30;;;2.20;;
69985;SDS011;57328;52.054;5.294;2023-05-23T07:28:30;8.45;;;2.08;;
69985;SDS011;57328;52.054;5.294;2023-05-23T07:30:57;11.68;;;2.20;;
69985;SDS011;57328;52.054;5.294;2023-05-23T07:33:24;7.43;;;1.60;;
69985;SDS011;57328;52.054;5.294;2023-05-23T07:35:51;8.85;;;2.15;;
69985;SDS011;57328;52.054;5.294;2023-05-23T07:38:19;8.48;;;1.90;;
69985;SDS011;57328;52.054;5.294;2023-05-23T07:40:46;9.13;;;2.13;;
69985;SDS011;57328;52.054;5.294;2023-05-23T07:43:35;14.45;;;2.22;;
69985;SDS011;57328;52.054;5.294;2023-05-23T07:46:02;7.03;;;2.15;;
69985;SDS011;57328;52.054;5.294;2023-05-23T07:48:30;11.70;;;2.00;;
69985;SDS011;57328;52.054;5.294;2023-05-23T07:50:57;11.75;;;1.90;;
69985;SDS011;57328;52.054;5.294;2023-05-23T07:53:24;8.43;;;1.88;;
69985;SDS011;57328;52.054;5.294;2023-05-23T07:55:51;8.48;;;1.58;;
69985;SDS011;57328;52.054;5.294;2023-05-23T07:58:19;4.75;;;1.90;;
69985;SDS011;57328;52.054;5.294;2023-05-23T08:00:46;13.73;;;2.08;;
69985;SDS011;57328;52.054;5.294;2023-05-23T08:03:17;5.88;;;1.33;;
69985;SDS011;57328;52.054;5.294;2023-05-23T08:05:44;6.70;;;1.95;;
69985;SDS011;57328;52.054;5.294;2023-05-23T08:08:11;8.85;;;1.75;;
69985;SDS011;57328;52.054;5.294;2023-05-23T08:10:39;10.07;;;2.00;;
69985;SDS011;57328;52.054;5.294;2023-05-23T08:13:08;3.95;;;0.98;;
69985;SDS011;57328;52.054;5.294;2023-05-23T08:15:35;8.30;;;1.80;;
69985;SDS011;57328;52.054;5.294;2023-05-23T08:18:03;8.27;;;1.50;;
69985;SDS011;57328;52.054;5.294;2023-05-23T08:20:31;9.23;;;2.13;;
69985;SDS011;57328;52.054;5.294;2023-05-23T08:22:58;7.90;;;1.73;;
69985;SDS011;57328;52.054;5.294;2023-05-23T08:25:26;10.48;;;2.25;;
69985;SDS011;57328;52.054;5.294;2023-05-23T08:27:57;10.38;;;1.58;;
69985;SDS011;57328;52.054;5.294;2023-05-23T08:30:25;11.13;;;2.13;;
69985;SDS011;57328;52.054;5.294;2023-05-23T08:32:53;9.25;;;2.45;;
69985;SDS011;57328;52.054;5.294;2023-05-23T08:35:21;9.20;;;1.98;;
69985;SDS011;57328;52.054;5.294;2023-05-23T08:37:48;9.57;;;1.65;;
69985;SDS011;57328;52.054;5.294;2023-05-23T08:40:20;8.88;;;1.40;;
69985;SDS011;57328;52.054;5.294;2023-05-23T08:42:48;10.23;;;1.67;;
69985;SDS011;57328;52.054;5.294;2023-05-23T08:45:16;12.13;;;1.95;;
69985;SDS011;57328;52.054;5.294;2023-05-23T08:47:44;8.10;;;2.15;;
69985;SDS011;57328;52.054;5.294;2023-05-23T08:50:12;10.82;;;1.50;;
69985;SDS011;57328;52.054;5.294;2023-05-23T08:52:42;10.38;;;2.67;;
69985;SDS011;57328;52.054;5.294;2023-05-23T08:55:10;5.85;;;1.52;;
69985;SDS011;57328;52.054;5.294;2023-05-23T08:57:38;11.65;;;1.60;;
69985;SDS011;57328;52.054;5.294;2023-05-23T09:00:10;11.98;;;2.35;;
69985;SDS011;57328;52.054;5.294;2023-05-23T09:02:42;9.52;;;1.98;;
69985;SDS011;57328;52.054;5.294;2023-05-23T09:05:10;5.78;;;1.73;;
69985;SDS011;57328;52.054;5.294;2023-05-23T09:07:38;9.48;;;2.47;;
69985;SDS011;57328;52.054;5.294;2023-05-23T09:10:06;8.95;;;1.50;;
69985;SDS011;57328;52.054;5.294;2023-05-23T09:12:33;12.52;;;1.58;;
69985;SDS011;57328;52.054;5.294;2023-05-23T09:15:06;12.63;;;2.58;;
69985;SDS011;57328;52.054;5.294;2023-05-23T09:17:35;11.48;;;1.80;;
69985;SDS011;57328;52.054;5.294;2023-05-23T09:20:13;13.45;;;2.25;;
69985;SDS011;57328;52.054;5.294;2023-05-23T09:22:40;14.77;;;2.58;;
69985;SDS011;57328;52.054;5.294;2023-05-23T09:25:12;7.43;;;1.40;;
69985;SDS011;57328;52.054;5.294;2023-05-23T09:27:39;12.73;;;2.40;;
69985;SDS011;57328;52.054;5.294;2023-05-23T09:30:07;8.52;;;1.98;;
69985;SDS011;57328;52.054;5.294;2023-05-23T09:32:35;7.95;;;1.90;;
69985;SDS011;57328;52.054;5.294;2023-05-23T09:35:16;8.75;;;1.95;;
69985;SDS011;57328;52.054;5.294;2023-05-23T09:37:48;2.28;;;1.00;;
69985;SDS011;57328;52.054;5.294;2023-05-23T09:40:16;12.52;;;2.30;;
69985;SDS011;57328;52.054;5.294;2023-05-23T09:42:44;8.48;;;1.77;;
69985;SDS011;57328;52.054;5.294;2023-05-23T09:45:12;9.45;;;1.88;;
69985;SDS011;57328;52.054;5.294;2023-05-23T09:47:47;6.43;;;1.60;;
69985;SDS011;57328;52.054;5.294;2023-05-23T09:50:16;12.75;;;2.17;;
69985;SDS011;57328;52.054;5.294;2023-05-23T09:55:12;8.77;;;1.58;;
69985;SDS011;57328;52.054;5.294;2023-05-23T09:57:40;10.90;;;2.33;;
69985;SDS011;57328;52.054;5.294;2023-05-23T10:00:09;7.45;;;1.80;;
69985;SDS011;57328;52.054;5.294;2023-05-23T10:05:08;9.45;;;2.60;;
69985;SDS011;57328;52.054;5.294;2023-05-23T10:07:43;7.43;;;1.77;;
69985;SDS011;57328;52.054;5.294;2023-05-23T10:10:10;7.93;;;1.88;;
69985;SDS011;57328;52.054;5.294;2023-05-23T10:15:07;9.10;;;1.65;;
69985;SDS011;57328;52.054;5.294;2023-05-23T10:17:39;11.43;;;1.73;;
69985;SDS011;57328;52.054;5.294;2023-05-23T10:20:13;8.93;;;1.65;;
69985;SDS011;57328;52.054;5.294;2023-05-23T10:22:42;12.52;;;2.28;;
69985;SDS011;57328;52.054;5.294;2023-05-23T10:25:09;6.90;;;2.17;;
69985;SDS011;57328;52.054;5.294;2023-05-23T10:27:37;8.73;;;1.73;;
69985;SDS011;57328;52.054;5.294;2023-05-23T10:30:05;4.25;;;1.13;;
69985;SDS011;57328;52.054;5.294;2023-05-23T10:35:20;8.25;;;1.42;;
69985;SDS011;57328;52.054;5.294;2023-05-23T10:46:01;6.80;;;1.60;;
69985;SDS011;57328;52.054;5.294;2023-05-23T10:48:32;12.20;;;2.13;;
69985;SDS011;57328;52.054;5.294;2023-05-23T10:53:31;11.32;;;1.80;;
69985;SDS011;57328;52.054;5.294;2023-05-23T10:56:01;12.00;;;1.95;;
69985;SDS011;57328;52.054;5.294;2023-05-23T10:58:31;7.65;;;1.80;;
69985;SDS011;57328;52.054;5.294;2023-05-23T11:00:59;7.18;;;1.70;;
69985;SDS011;57328;52.054;5.294;2023-05-23T11:06:02;13.48;;;2.10;;
69985;SDS011;57328;52.054;5.294;2023-05-23T11:08:39;8.23;;;1.60;;
69985;SDS011;57328;52.054;5.294;2023-05-23T11:11:15;13.73;;;1.85;;
69985;SDS011;57328;52.054;5.294;2023-05-23T11:13:53;6.95;;;1.85;;
69985;SDS011;57328;52.054;5.294;2023-05-23T11:16:24;10.98;;;1.80;;
69985;SDS011;57328;52.054;5.294;2023-05-23T11:18:56;10.20;;;1.92;;
69985;SDS011;57328;52.054;5.294;2023-05-23T11:21:28;9.23;;;1.92;;
69985;SDS011;57328;52.054;5.294;2023-05-23T11:23:57;8.38;;;1.48;;
69985;SDS011;57328;52.054;5.294;2023-05-23T11:26:30;12.48;;;2.40;;
69985;SDS011;57328;52.054;5.294;2023-05-23T11:28:59;10.02;;;1.73;;
69985;SDS011;57328;52.054;5.294;2023-05-23T11:31:29;8.32;;;1.58;;
69985;SDS011;57328;52.054;5.294;2023-05-23T11:33:56;6.90;;;1.75;;
69985;SDS011;57328;52.054;5.294;2023-05-23T11:36:24;8.52;;;1.42;;
69985;SDS011;57328;52.054;5.294;2023-05-23T11:38:52;9.68;;;1.90;;
69985;SDS011;57328;52.054;5.294;2023-05-23T11:41:19;6.25;;;1.42;;
69985;SDS011;57328;52.054;5.294;2023-05-23T11:43:50;7.05;;;1.73;;
69985;SDS011;57328;52.054;5.294;2023-05-23T11:46:20;7.35;;;1.58;;
69985;SDS011;57328;52.054;5.294;2023-05-23T11:48:47;7.18;;;1.70;;
69985;SDS011;57328;52.054;5.294;2023-05-23T11:51:15;8.38;;;1.80;;
69985;SDS011;57328;52.054;5.294;2023-05-23T11:53:43;12.00;;;2.40;;
69985;SDS011;57328;52.054;5.294;2023-05-23T11:56:10;6.07;;;1.50;;
69985;SDS011;57328;52.054;5.294;2023-05-23T11:58:39;6.68;;;1.63;;
69985;SDS011;57328;52.054;5.294;2023-05-23T12:01:08;5.68;;;1.60;;
69985;SDS011;57328;52.054;5.294;2023-05-23T12:03:45;14.27;;;1.77;;
69985;SDS011;57328;52.054;5.294;2023-05-23T12:06:19;14.43;;;1.50;;
69985;SDS011;57328;52.054;5.294;2023-05-23T12:08:47;6.80;;;1.52;;
69985;SDS011;57328;52.054;5.294;2023-05-23T12:11:16;8.63;;;1.42;;
69985;SDS011;57328;52.054;5.294;2023-05-23T12:13:44;7.03;;;1.65;;
69985;SDS011;57328;52.054;5.294;2023-05-23T12:16:14;5.10;;;1.38;;
69985;SDS011;57328;52.054;5.294;2023-05-23T12:18:41;7.15;;;1.50;;
69985;SDS011;57328;52.054;5.294;2023-05-23T12:21:09;4.90;;;1.20;;
69985;SDS011;57328;52.054;5.294;2023-05-23T12:23:38;5.95;;;1.30;;
69985;SDS011;57328;52.054;5.294;2023-05-23T12:26:05;5.28;;;1.38;;
69985;SDS011;57328;52.054;5.294;2023-05-23T12:28:39;9.55;;;1.50;;
69985;SDS011;57328;52.054;5.294;2023-05-23T12:31:12;7.65;;;1.40;;
69985;SDS011;57328;52.054;5.294;2023-05-23T12:33:40;9.43;;;1.80;;
69985;SDS011;57328;52.054;5.294;2023-05-23T12:36:11;5.85;;;1.55;;
69985;SDS011;57328;52.054;5.294;2023-05-23T12:38:38;8.27;;;1.67;;
69985;SDS011;57328;52.054;5.294;2023-05-23T12:41:06;9.10;;;2.10;;
69985;SDS011;57328;52.054;5.294;2023-05-23T12:43:40;9.13;;;1.75;;
69985;SDS011;57328;52.054;5.294;2023-05-23T12:46:15;14.65;;;2.10;;
69985;SDS011;57328;52.054;5.294;2023-05-23T12:48:42;8.88;;;1.80;;
69985;SDS011;57328;52.054;5.294;2023-05-23T12:51:09;8.20;;;1.65;;
69985;SDS011;57328;52.054;5.294;2023-05-23T12:53:37;11.05;;;2.25;;
69985;SDS011;57328;52.054;5.294;2023-05-23T12:56:04;7.68;;;1.75;;
69985;SDS011;57328;52.054;5.294;2023-05-23T12:58:31;10.50;;;1.80;;
69985;SDS011;57328;52.054;5.294;2023-05-23T13:01:00;7.38;;;1.58;;
69985;SDS011;57328;52.054;5.294;2023-05-23T13:03:28;11.75;;;1.80;;
69985;SDS011;57328;52.054;5.294;2023-05-23T13:05:57;8.30;;;1.73;;
69985;SDS011;57328;52.054;5.294;2023-05-23T13:08:26;6.78;;;1.10;;
69985;SDS011;57328;52.054;5.294;2023-05-23T13:10:54;12.15;;;2.13;;
69985;SDS011;57328;52.054;5.294;2023-05-23T13:13:22;6.00;;;1.60;;
69985;SDS011;57328;52.054;5.294;2023-05-23T13:15:49;7.05;;;1.58;;
69985;SDS011;57328;52.054;5.294;2023-05-23T13:18:17;8.43;;;1.63;;
69985;SDS011;57328;52.054;5.294;2023-05-23T13:20:44;6.85;;;1.58;;
69985;SDS011;57328;52.054;5.294;2023-05-23T13:23:12;6.93;;;1.63;;
69985;SDS011;57328;52.054;5.294;2023-05-23T13:25:39;5.78;;;1.63;;
69985;SDS011;57328;52.054;5.294;2023-05-23T13:28:08;5.22;;;1.27;;
69985;SDS011;57328;52.054;5.294;2023-05-23T13:30:35;7.03;;;1.55;;
69985;SDS011;57328;52.054;5.294;2023-05-23T13:33:03;5.28;;;1.23;;
69985;SDS011;57328;52.054;5.294;2023-05-23T13:35:30;10.02;;;1.80;;
69985;SDS011;57328;52.054;5.294;2023-05-23T13:37:57;7.80;;;1.50;;
69985;SDS011;57328;52.054;5.294;2023-05-23T13:40:24;9.10;;;1.30;;
69985;SDS011;57328;52.054;5.294;2023-05-23T13:42:52;9.82;;;2.20;;
69985;SDS011;57328;52.054;5.294;2023-05-23T13:45:20;9.30;;;2.22;;
69985;SDS011;57328;52.054;5.294;2023-05-23T13:47:48;6.70;;;1.40;;
69985;SDS011;57328;52.054;5.294;2023-05-23T13:50:15;9.63;;;1.60;;
69985;SDS011;57328;52.054;5.294;2023-05-23T13:52:43;3.75;;;1.20;;
69985;SDS011;57328;52.054;5.294;2023-05-23T13:55:14;7.25;;;1.23;;
69985;SDS011;57328;52.054;5.294;2023-05-23T13:57:42;10.73;;;1.67;;
69985;SDS011;57328;52.054;5.294;2023-05-23T14:00:10;5.47;;;1.42;;
69985;SDS011;57328;52.054;5.294;2023-05-23T14:02:37;6.85;;;1.58;;
69985;SDS011;57328;52.054;5.294;2023-05-23T14:05:05;5.55;;;1.60;;
69985;SDS011;57328;52.054;5.294;2023-05-23T14:07:33;4.50;;;1.30;;
69985;SDS011;57328;52.054;5.294;2023-05-23T14:10:00;7.43;;;1.45;;
69985;SDS011;57328;52.054;5.294;2023-05-23T14:12:28;5.72;;;1.85;;
69985;SDS011;57328;52.054;5.294;2023-05-23T14:14:56;8.75;;;1.52;;
69985;SDS011;57328;52.054;5.294;2023-05-23T14:17:24;8.57;;;1.58;;
69985;SDS011;57328;52.054;5.294;2023-05-23T14:19:51;10.20;;;1.50;;
69985;SDS011;57328;52.054;5.294;2023-05-23T14:22:18;7.75;;;1.65;;
69985;SDS011;57328;52.054;5.294;2023-05-23T14:24:45;6.82;;;1.67;;
69985;SDS011;57328;52.054;5.294;2023-05-23T14:27:13;8.48;;;2.10;;
69985;SDS011;57328;52.054;5.294;2023-05-23T14:29:40;11.60;;;1.60;;
69985;SDS011;57328;52.054;5.294;2023-05-23T14:32:11;9.13;;;1.65;;
69985;SDS011;57328;52.054;5.294;2023-05-23T14:34:39;8.02;;;1.63;;
69985;SDS011;57328;52.054;5.294;2023-05-23T14:37:06;10.70;;;1.67;;
69985;SDS011;57328;52.054;5.294;2023-05-23T14:39:33;9.63;;;1.50;;
69985;SDS011;57328;52.054;5.294;2023-05-23T14:42:01;6.13;;;1.60;;
69985;SDS011;57328;52.054;5.294;2023-05-23T14:44:28;7.65;;;1.40;;
69985;SDS011;57328;52.054;5.294;2023-05-23T14:46:56;10.57;;;1.88;;
69985;SDS011;57328;52.054;5.294;2023-05-23T14:49:23;10.05;;;1.48;;
69985;SDS011;57328;52.054;5.294;2023-05-23T14:51:50;5.55;;;1.50;;
69985;SDS011;57328;52.054;5.294;2023-05-23T14:54:19;8.70;;;1.27;;
69985;SDS011;57328;52.054;5.294;2023-05-23T14:56:46;7.57;;;1.70;;
69985;SDS011;57328;52.054;5.294;2023-05-23T14:59:17;4.47;;;1.42;;
69985;SDS011;57328;52.054;5.294;2023-05-23T15:01:45;7.00;;;1.65;;
69985;SDS011;57328;52.054;5.294;2023-05-23T15:04:12;8.05;;;1.50;;
69985;SDS011;57328;52.054;5.294;2023-05-23T15:06:40;8.75;;;1.45;;
69985;SDS011;57328;52.054;5.294;2023-05-23T15:09:08;11.68;;;1.80;;
69985;SDS011;57328;52.054;5.294;2023-05-23T15:11:35;8.77;;;1.70;;
69985;SDS011;57328;52.054;5.294;2023-05-23T15:14:04;14.77;;;2.22;;
69985;SDS011;57328;52.054;5.294;2023-05-23T15:16:31;9.50;;;1.33;;
69985;SDS011;57328;52.054;5.294;2023-05-23T15:19:00;5.90;;;1.40;;
69985;SDS011;57328;52.054;5.294;2023-05-23T15:21:27;7.53;;;1.40;;
69985;SDS011;57328;52.054;5.294;2023-05-23T15:23:55;3.55;;;1.05;;
69985;SDS011;57328;52.054;5.294;2023-05-23T15:26:24;6.55;;;1.05;;